CO55 weather

Christman Field
Fort Collins, Colorado, United States

Public forecast

Using degrees Fahrenheit for public forecast. Weather courtesy of forecast.io.

Closest aviation weather report (METAR) to Christman Field

Closest report is Northern Colorado Regional Airport, 10.6 nm (19.7 km) SE. Retrieved 2019/10/23 10:56 UTC (25 minutes ago):

KFNL 231056Z AUTO 31022G28KT 10SM CLR 11/M03 A2999 RMK AO2 PK WND 30035/1022 SLP120 T01061033

Closest aviation forecast (TAF) to Christman Field

Closest forecast is Cheyenne Regional Jerry Olson Field, 36.8 nm (68.1 km) NNE. Retrieved 2019/10/23 06:28 UTC (5 hours ago):

TAF KCYS 230526Z 2306/2406 28020G30KT P6SM FEW050 FM230900 34015G25KT P6SM VCSH SCT030 BKN060 FM231400 31025G35KT P6SM SCT080 SCT200 FM240100 36010KT P6SM OVC035